Harrison, Michigan
Current Conditions -  °F | °C
As of 10:53 PM on Tuesday 25 Nov 2014 (Local Time) from KHTL Reporting Station
Overcast Overcast  
Wind Chill: -8°   Ceiling: 2100
Heat Index: -3°   Visibility: 10mi
Dew Point: -7°   Wind: 9mph
Humidity: 75%   Direction: 230°SW
Pressure: 30.13"   Gusts: NA
Location:  44.02°N, 84.8°W
Report Text: KHTL 260353Z AUTO 23008KT 10SM OVC021 M03/M07 A3013 RMK AO2 SLP219 T10331072
Loading
Personal Weather Stations






























Interactive Weather Map New forecast layout! Learn more

10-Day Weather Forecast

Advertisements
Track Severe Weather on mobile